createdAt,value
2022-09-03T00:01:38.448Z,54.78
2022-09-03T00:04:16.958Z,56.88
2022-09-03T00:07:02.424Z,57.92
2022-09-03T00:09:36.443Z,55.94
2022-09-03T00:12:11.970Z,57.04
2022-09-03T00:14:46.043Z,57.57
2022-09-03T00:17:19.631Z,57.12
2022-09-03T00:19:55.575Z,56.19
2022-09-03T00:22:30.136Z,56.53
2022-09-03T00:25:02.372Z,58.26
2022-09-03T00:27:37.186Z,57.58
2022-09-03T00:30:09.805Z,58.56
2022-09-03T00:32:46.794Z,58.12
2022-09-03T00:35:25.123Z,58.32
2022-09-03T00:37:53.427Z,57.31
2022-09-03T00:40:51.197Z,57.08
2022-09-03T00:43:40.908Z,58.74
2022-09-03T00:46:23.692Z,61.36
2022-09-03T00:49:19.839Z,59.46
2022-09-03T00:51:59.211Z,59.27
2022-09-03T00:54:43.080Z,58.03
2022-09-03T00:57:30.515Z,57.11
2022-09-03T01:00:07.473Z,57.50
2022-09-03T01:02:52.205Z,58.23
2022-09-03T01:05:53.609Z,58.05
2022-09-03T01:08:49.322Z,59.11
2022-09-03T01:11:35.231Z,57.83
2022-09-03T01:14:19.008Z,59.75
2022-09-03T01:16:56.352Z,60.03
2022-09-03T01:19:57.557Z,58.94
2022-09-03T01:23:16.920Z,58.10
2022-09-03T01:26:01.127Z,57.91
2022-09-03T01:28:50.569Z,58.14
2022-09-03T01:31:33.067Z,59.34
2022-09-03T01:34:20.064Z,59.46
2022-09-03T01:37:06.423Z,59.21
2022-09-03T01:39:48.349Z,58.65
2022-09-03T01:42:25.354Z,59.62
2022-09-03T01:45:40.286Z,59.38
2022-09-03T01:48:43.282Z,59.45
2022-09-03T01:51:21.966Z,60.38
2022-09-03T01:54:31.959Z,59.86
2022-09-03T01:57:35.648Z,60.34
2022-09-03T02:00:09.624Z,61.79
2022-09-03T02:02:43.469Z,59.92
2022-09-03T02:05:14.670Z,59.34
2022-09-03T02:07:45.287Z,59.21
2022-09-03T02:10:16.934Z,59.73
2022-09-03T02:12:49.856Z,60.98
2022-09-03T02:15:21.627Z,61.39
2022-09-03T02:17:56.025Z,60.59
2022-09-03T02:20:29.326Z,62.50
2022-09-03T02:22:59.000Z,61.34
2022-09-03T02:25:36.844Z,61.55
2022-09-03T02:28:06.227Z,61.68
2022-09-03T02:30:44.929Z,62.46
2022-09-03T02:33:14.778Z,62.70
2022-09-03T02:35:42.760Z,63.07
2022-09-03T02:38:12.055Z,62.42
2022-09-03T02:40:39.350Z,62.67
2022-09-03T02:43:16.400Z,61.45
2022-09-03T02:45:47.957Z,62.14
2022-09-03T02:48:23.266Z,62.43
2022-09-03T02:50:51.175Z,61.50
2022-09-03T02:53:18.155Z,61.18
2022-09-03T02:55:45.554Z,60.74
2022-09-03T02:58:13.594Z,61.71
2022-09-03T03:00:40.898Z,61.71
2022-09-03T03:03:08.084Z,62.04
2022-09-03T03:05:45.783Z,63.45
2022-09-03T03:08:13.722Z,63.24
2022-09-03T03:10:41.423Z,64.41
2022-09-03T03:13:08.345Z,63.72
2022-09-03T03:15:35.191Z,63.14
2022-09-03T03:18:02.087Z,64.19
2022-09-03T03:20:29.213Z,63.76
2022-09-03T03:22:57.313Z,63.92
2022-09-03T03:25:24.409Z,63.32
2022-09-03T03:27:51.242Z,63.75
2022-09-03T03:30:18.772Z,63.13
2022-09-03T03:32:45.818Z,62.80
2022-09-03T03:35:13.160Z,63.84
2022-09-03T03:37:40.427Z,64.89
2022-09-03T03:40:10.551Z,66.14
2022-09-03T03:42:37.781Z,65.35
2022-09-03T03:45:06.171Z,65.65
2022-09-03T03:47:34.045Z,65.73
2022-09-03T03:50:00.965Z,66.40
2022-09-03T03:52:28.640Z,67.51
2022-09-03T03:54:55.701Z,67.07
2022-09-03T03:57:24.166Z,67.08
2022-09-03T03:59:51.562Z,67.59
2022-09-03T04:02:18.733Z,66.27
2022-09-03T04:04:45.846Z,66.86
2022-09-03T04:07:13.119Z,66.65
2022-09-03T04:09:40.030Z,66.72
2022-09-03T04:12:07.595Z,66.21
2022-09-03T04:14:37.858Z,65.83
2022-09-03T04:17:05.006Z,65.96
2022-09-03T04:19:32.113Z,65.29
2022-09-03T04:21:59.011Z,66.45
2022-09-03T04:24:25.989Z,66.43
2022-09-03T04:26:53.279Z,64.81
2022-09-03T04:29:20.248Z,64.77
2022-09-03T04:31:48.583Z,64.89
2022-09-03T04:34:15.753Z,65.59
2022-09-03T04:36:42.937Z,65.73
2022-09-03T04:39:09.821Z,64.29
2022-09-03T04:41:36.721Z,65.13
2022-09-03T04:44:03.691Z,64.02
2022-09-03T04:46:30.590Z,64.91
2022-09-03T04:48:59.387Z,63.86
2022-09-03T04:51:28.437Z,65.15
2022-09-03T04:53:59.231Z,65.45
2022-09-03T04:56:28.961Z,65.84
2022-09-03T04:58:58.511Z,65.11
2022-09-03T05:01:29.495Z,65.78
2022-09-03T05:03:57.314Z,66.70
2022-09-03T05:06:26.832Z,66.90
2022-09-03T05:08:55.676Z,67.03
2022-09-03T05:11:23.967Z,67.04
2022-09-03T05:13:53.983Z,66.13
2022-09-03T05:16:24.267Z,65.24
2022-09-03T05:18:52.625Z,66.08
2022-09-03T05:21:21.112Z,66.16
2022-09-03T05:23:51.661Z,65.21
2022-09-03T05:26:21.683Z,64.75
2022-09-03T05:28:48.596Z,63.96
2022-09-03T05:31:18.618Z,65.36
2022-09-03T05:33:48.308Z,63.83
2022-09-03T05:36:18.702Z,64.51
2022-09-03T05:38:46.845Z,63.46
2022-09-03T05:41:18.991Z,62.53
2022-09-03T05:43:49.036Z,60.92
2022-09-03T05:46:16.162Z,61.64
2022-09-03T05:48:43.167Z,61.78
2022-09-03T05:51:13.166Z,61.17
2022-09-03T05:53:40.792Z,60.21
2022-09-03T05:56:10.281Z,59.32
2022-09-03T05:58:40.845Z,59.76
2022-09-03T06:01:12.862Z,59.72
2022-09-03T06:03:40.052Z,58.98
2022-09-03T06:06:08.421Z,59.43
2022-09-03T06:08:37.216Z,57.39
2022-09-03T06:11:06.409Z,55.47
2022-09-03T06:13:34.571Z,49.66
2022-09-03T06:16:06.387Z,49.31
2022-09-03T06:18:33.694Z,49.59
2022-09-03T06:21:02.550Z,50.84
2022-09-03T06:23:31.750Z,50.76
2022-09-03T06:26:05.575Z,51.93
2022-09-03T06:28:34.790Z,52.18
2022-09-03T06:31:04.740Z,52.08
2022-09-03T06:33:34.183Z,51.35
2022-09-03T06:36:08.530Z,51.68
2022-09-03T06:38:37.883Z,51.37
2022-09-03T06:41:07.985Z,51.99
2022-09-03T06:43:37.484Z,52.14
2022-09-03T06:46:08.885Z,53.75
2022-09-03T06:48:37.892Z,54.28
2022-09-03T06:51:08.057Z,55.08
2022-09-03T06:53:38.214Z,54.75
2022-09-03T06:56:08.181Z,54.21
2022-09-03T06:58:38.082Z,54.52
2022-09-03T07:01:09.259Z,55.59
2022-09-03T07:03:38.346Z,55.39
2022-09-03T07:06:08.254Z,55.28
2022-09-03T07:08:36.446Z,56.21
2022-09-03T07:11:06.083Z,55.85
2022-09-03T07:13:33.110Z,56.75
2022-09-03T07:16:01.711Z,57.74
2022-09-03T07:18:30.617Z,57.35
2022-09-03T07:20:59.354Z,57.37
2022-09-03T07:23:26.218Z,57.49
2022-09-03T07:25:55.956Z,57.29
2022-09-03T07:28:22.824Z,56.48
2022-09-03T07:30:49.687Z,55.27
2022-09-03T07:33:16.580Z,55.76
2022-09-03T07:35:45.751Z,56.13
2022-09-03T07:38:17.700Z,55.73
2022-09-03T07:40:44.528Z,57.68
2022-09-03T07:43:11.914Z,58.08
2022-09-03T07:45:39.168Z,58.48
2022-09-03T07:48:06.047Z,59.55
2022-09-03T07:50:33.128Z,59.61
2022-09-03T07:53:01.311Z,59.25
2022-09-03T07:55:28.118Z,60.27
2022-09-03T07:57:58.547Z,60.52
2022-09-03T08:00:25.756Z,59.84
2022-09-03T08:02:57.969Z,60.23
2022-09-03T08:05:25.347Z,60.00
2022-09-03T08:07:52.306Z,58.97
2022-09-03T08:10:20.712Z,58.69
2022-09-03T08:12:53.672Z,57.92
2022-09-03T08:15:20.694Z,57.64
2022-09-03T08:17:47.562Z,54.84
2022-09-03T08:20:14.762Z,51.29
2022-09-03T08:22:41.764Z,49.46
2022-09-03T08:25:09.746Z,51.01
2022-09-03T08:27:41.957Z,49.73
2022-09-03T08:30:10.268Z,49.03
2022-09-03T08:32:38.065Z,50.19
2022-09-03T08:35:07.153Z,51.00
2022-09-03T08:37:34.215Z,51.47
2022-09-03T08:40:01.151Z,51.48
2022-09-03T08:42:44.607Z,52.06
2022-09-03T08:45:21.488Z,52.21
2022-09-03T08:47:59.189Z,53.04
2022-09-03T08:50:31.668Z,54.61
2022-09-03T08:53:09.253Z,54.43
2022-09-03T08:55:41.829Z,54.32
2022-09-03T08:58:14.465Z,53.97
2022-09-03T09:00:53.558Z,53.61
2022-09-03T09:03:43.356Z,54.12
2022-09-03T09:06:26.290Z,54.58
2022-09-03T09:09:17.045Z,54.13
2022-09-03T09:12:04.475Z,53.63
2022-09-03T09:14:40.489Z,54.13
2022-09-03T09:17:31.696Z,54.30
2022-09-03T09:20:14.906Z,54.56
2022-09-03T09:22:47.738Z,54.34
2022-09-03T09:25:20.387Z,54.40
2022-09-03T09:27:53.910Z,54.85
2022-09-03T09:30:22.261Z,53.80
2022-09-03T09:32:49.141Z,53.58
2022-09-03T09:35:18.818Z,54.66
2022-09-03T09:37:52.134Z,54.79
2022-09-03T09:40:30.825Z,55.01
2022-09-03T09:43:10.706Z,57.37
2022-09-03T09:45:42.264Z,58.09
2022-09-03T09:48:17.942Z,58.83
2022-09-03T09:50:45.107Z,59.12
2022-09-03T09:53:13.177Z,58.89
2022-09-03T09:55:58.607Z,58.61
2022-09-03T09:58:28.213Z,59.00
2022-09-03T10:01:04.000Z,59.23
2022-09-03T10:03:34.348Z,58.12
2022-09-03T10:06:08.951Z,57.84
2022-09-03T10:08:36.096Z,57.93
2022-09-03T10:11:03.932Z,56.42
2022-09-03T10:13:42.214Z,57.27
2022-09-03T10:16:23.889Z,55.75
2022-09-03T10:19:04.206Z,50.17
2022-09-03T10:21:40.530Z,46.69
2022-09-03T10:24:33.243Z,46.75
2022-09-03T10:27:00.168Z,44.57
2022-09-03T10:29:27.209Z,45.15
2022-09-03T10:32:14.943Z,46.24
2022-09-03T10:34:55.807Z,49.71
2022-09-03T10:37:34.811Z,47.60
2022-09-03T10:40:18.167Z,46.14
2022-09-03T10:43:05.285Z,45.49
2022-09-03T10:45:43.776Z,42.32
2022-09-03T10:49:09.049Z,42.95
2022-09-03T10:51:44.226Z,44.44
2022-09-03T10:54:45.118Z,42.73
2022-09-03T10:57:36.656Z,40.12
2022-09-03T11:00:09.138Z,41.89
2022-09-03T11:03:21.007Z,41.04
2022-09-03T11:06:03.037Z,43.63
2022-09-03T11:08:39.437Z,42.80
2022-09-03T11:11:19.226Z,41.14
2022-09-03T11:13:56.840Z,39.92
2022-09-03T11:16:31.055Z,38.91
2022-09-03T11:19:05.721Z,39.29
2022-09-03T11:21:40.142Z,40.00
2022-09-03T11:24:14.333Z,42.35
2022-09-03T11:26:47.304Z,42.16
2022-09-03T11:29:29.848Z,41.45
2022-09-03T11:32:04.556Z,43.06
2022-09-03T11:34:44.260Z,44.00
2022-09-03T11:37:23.530Z,44.80
2022-09-03T11:39:58.603Z,43.41
2022-09-03T11:42:33.787Z,43.59
2022-09-03T11:45:19.943Z,43.42
2022-09-03T11:47:48.378Z,43.70
2022-09-03T11:50:24.301Z,44.72
2022-09-03T11:53:08.716Z,44.38
2022-09-03T11:55:53.475Z,48.49
2022-09-03T11:58:27.750Z,48.67
2022-09-03T12:00:57.226Z,49.04
2022-09-03T12:03:36.971Z,49.43
2022-09-03T12:06:40.715Z,49.68
2022-09-03T12:10:05.129Z,49.61
2022-09-03T12:12:58.376Z,48.17
2022-09-03T12:16:05.961Z,49.04
2022-09-03T12:18:36.958Z,49.04
2022-09-03T12:21:07.722Z,48.67
2022-09-03T12:23:41.441Z,48.52
2022-09-03T12:26:13.632Z,48.81
2022-09-03T12:28:45.646Z,49.59
2022-09-03T12:31:18.862Z,49.68
2022-09-03T12:33:48.114Z,50.86
2022-09-03T12:36:15.335Z,51.51
2022-09-03T12:39:10.049Z,51.43
2022-09-03T12:41:31.298Z,52.52
2022-09-03T12:44:00.353Z,53.15
2022-09-03T12:46:34.184Z,53.02
2022-09-03T12:52:03.101Z,53.65
2022-09-03T12:54:34.134Z,55.64
2022-09-03T12:57:04.003Z,55.38
2022-09-03T12:59:37.116Z,55.33
2022-09-03T13:02:16.467Z,55.40
2022-09-03T13:04:46.356Z,55.89
2022-09-03T13:07:23.689Z,55.99
2022-09-03T13:09:51.283Z,55.02
2022-09-03T13:12:30.203Z,56.91
2022-09-03T13:15:05.946Z,56.25
2022-09-03T13:17:56.031Z,56.10
2022-09-03T13:20:35.502Z,56.63
2022-09-03T13:23:25.096Z,56.73
2022-09-03T13:26:08.594Z,56.43
2022-09-03T13:28:58.906Z,57.45
2022-09-03T13:31:35.121Z,63.77
2022-09-03T13:34:09.819Z,65.17
2022-09-03T13:36:49.130Z,67.71
2022-09-03T13:39:28.618Z,68.39
2022-09-03T13:42:06.304Z,68.06
2022-09-03T13:44:45.112Z,69.16
2022-09-03T13:47:29.717Z,70.83
2022-09-03T13:50:10.240Z,72.14
2022-09-03T13:52:46.397Z,72.30
2022-09-03T13:55:26.411Z,73.67
2022-09-03T13:58:04.589Z,73.87
2022-09-03T14:00:45.289Z,73.23
2022-09-03T14:03:30.127Z,71.79
2022-09-03T14:06:12.091Z,71.06
2022-09-03T14:09:04.484Z,70.43
2022-09-03T14:11:47.528Z,70.69
2022-09-03T14:14:34.988Z,70.33
2022-09-03T14:17:15.194Z,71.46
2022-09-03T14:19:54.917Z,70.65
2022-09-03T14:22:30.427Z,69.98
2022-09-03T14:25:04.984Z,70.78
2022-09-03T14:27:33.434Z,72.32
2022-09-03T14:30:03.671Z,72.01
2022-09-03T14:32:50.269Z,73.04
2022-09-03T14:35:38.681Z,73.05
2022-09-03T14:38:56.192Z,73.72
2022-09-03T14:41:44.029Z,74.28
2022-09-03T14:44:32.949Z,73.62
2022-09-03T14:47:20.170Z,73.92
2022-09-03T14:50:27.931Z,72.95
2022-09-03T14:53:18.509Z,73.77
2022-09-03T14:56:10.391Z,75.13
2022-09-03T14:59:00.189Z,76.52
2022-09-03T15:01:37.652Z,76.65
2022-09-03T15:04:45.236Z,77.55
2022-09-03T15:07:32.011Z,77.54
2022-09-03T15:10:15.079Z,77.98
2022-09-03T15:12:49.970Z,79.81
2022-09-03T15:15:22.940Z,80.22
2022-09-03T15:18:16.967Z,81.44
2022-09-03T15:20:51.928Z,82.00
2022-09-03T15:23:49.856Z,82.71
2022-09-03T15:26:43.848Z,83.37
2022-09-03T15:29:35.293Z,85.12
2022-09-03T15:32:17.794Z,84.35
2022-09-03T15:35:05.812Z,85.59
2022-09-03T15:37:44.295Z,86.67
2022-09-03T15:40:28.403Z,88.22
2022-09-03T15:43:05.610Z,87.08
2022-09-03T15:45:40.543Z,86.61
2022-09-03T15:48:26.658Z,86.04
2022-09-03T15:51:08.006Z,89.17
2022-09-03T15:53:44.549Z,88.17
2022-09-03T15:56:22.741Z,87.22
2022-09-03T15:59:01.204Z,89.25
2022-09-03T16:01:45.721Z,86.15
2022-09-03T16:04:39.146Z,86.34
2022-09-03T16:07:22.375Z,85.87
2022-09-03T16:10:24.247Z,86.00
2022-09-03T16:13:07.595Z,86.06
2022-09-03T16:15:43.509Z,86.91
2022-09-03T16:18:25.269Z,87.35
2022-09-03T16:20:59.239Z,89.22
2022-09-03T16:23:37.298Z,90.34
2022-09-03T16:26:13.244Z,90.03
2022-09-03T16:28:53.320Z,90.09
2022-09-03T16:31:48.805Z,87.85
2022-09-03T16:34:30.847Z,89.89
2022-09-03T16:37:13.951Z,89.66
2022-09-03T16:39:55.377Z,88.38
2022-09-03T16:42:33.113Z,86.87
2022-09-03T16:45:18.311Z,87.21
2022-09-03T16:48:09.177Z,87.45
2022-09-03T16:50:52.397Z,88.07
2022-09-03T16:53:38.292Z,89.48
2022-09-03T16:56:31.560Z,90.11
2022-09-03T16:59:16.985Z,91.54
2022-09-03T17:02:23.760Z,92.63
2022-09-03T17:05:15.947Z,92.18
2022-09-03T17:08:07.914Z,94.40
2022-09-03T17:10:46.244Z,93.81
2022-09-03T17:13:50.986Z,93.94
2022-09-03T17:16:38.882Z,95.00
2022-09-03T17:19:23.504Z,95.43
2022-09-03T17:22:10.386Z,94.55
2022-09-03T17:24:42.866Z,94.15
2022-09-03T17:27:54.762Z,94.03
2022-09-03T17:30:35.791Z,92.70
2022-09-03T17:33:29.039Z,91.94
2022-09-03T17:36:10.460Z,92.16
2022-09-03T17:39:17.531Z,92.62
2022-09-03T17:41:51.968Z,90.80
2022-09-03T17:44:39.299Z,94.49
2022-09-03T17:47:37.910Z,92.91
2022-09-03T17:50:17.537Z,94.76
2022-09-03T17:52:52.016Z,95.00
2022-09-03T17:55:32.650Z,95.04
2022-09-03T17:58:13.030Z,96.46
2022-09-03T18:00:53.963Z,98.59
2022-09-03T18:03:30.159Z,98.40
2022-09-03T18:06:03.132Z,97.36
2022-09-03T18:08:44.977Z,97.85
2022-09-03T18:11:22.322Z,97.50
2022-09-03T18:14:01.316Z,99.16
2022-09-03T18:16:32.505Z,100.00
2022-09-03T18:19:10.574Z,100.00
2022-09-03T18:21:39.280Z,100.00
2022-09-03T18:24:30.718Z,100.00
2022-09-03T18:27:05.472Z,100.00
2022-09-03T18:29:43.558Z,100.00
2022-09-03T18:32:11.488Z,100.00
2022-09-03T18:34:41.686Z,100.00
2022-09-03T18:37:08.852Z,100.00
2022-09-03T18:39:37.390Z,100.00
2022-09-03T18:42:19.036Z,100.00
2022-09-03T18:45:22.833Z,100.00
2022-09-03T18:48:12.734Z,100.00
2022-09-03T18:51:09.978Z,100.00
2022-09-03T18:53:57.741Z,100.00
2022-09-03T18:56:38.027Z,100.00
2022-09-03T18:59:29.555Z,100.00
2022-09-03T19:01:56.935Z,100.00
2022-09-03T19:04:42.611Z,100.00
2022-09-03T19:07:19.802Z,100.00
2022-09-03T19:09:56.936Z,100.00
2022-09-03T19:12:44.028Z,100.00
2022-09-03T19:15:25.932Z,100.00
2022-09-03T19:18:30.374Z,100.00
2022-09-03T19:21:14.274Z,100.00
2022-09-03T19:23:43.506Z,100.00
2022-09-03T19:26:29.019Z,100.00
2022-09-03T19:29:13.606Z,100.00
2022-09-03T19:31:46.984Z,100.00
2022-09-03T19:34:56.503Z,100.00
2022-09-03T19:37:32.970Z,100.00
2022-09-03T19:40:25.232Z,100.00
2022-09-03T19:43:10.517Z,100.00
2022-09-03T19:45:54.578Z,100.00
2022-09-03T19:48:44.634Z,100.00
2022-09-03T19:51:21.286Z,100.00
2022-09-03T19:54:11.574Z,100.00
2022-09-03T19:56:41.390Z,100.00
2022-09-03T19:59:23.521Z,100.00
2022-09-03T20:01:56.532Z,100.00
2022-09-03T20:04:32.895Z,100.00
2022-09-03T20:07:06.095Z,100.00
2022-09-03T20:09:42.367Z,100.00
2022-09-03T20:12:18.032Z,100.00
2022-09-03T20:14:45.387Z,100.00
2022-09-03T20:17:29.102Z,100.00
2022-09-03T20:20:15.377Z,100.00
2022-09-03T20:22:54.494Z,100.00
2022-09-03T20:25:56.333Z,100.00
2022-09-03T20:29:09.478Z,100.00
2022-09-03T20:32:06.908Z,100.00
2022-09-03T20:34:56.175Z,100.00
2022-09-03T20:37:42.694Z,100.00
2022-09-03T20:40:26.964Z,100.00
2022-09-03T20:43:36.869Z,100.00
2022-09-03T20:46:44.090Z,100.00
2022-09-03T20:49:31.013Z,100.00
2022-09-03T20:52:20.163Z,100.00
2022-09-03T20:55:45.459Z,100.00
2022-09-03T20:58:54.021Z,100.00
2022-09-03T21:01:34.891Z,100.00
2022-09-03T21:04:24.270Z,100.00
2022-09-03T21:07:06.205Z,100.00
2022-09-03T21:09:52.407Z,100.00
2022-09-03T21:12:36.990Z,100.00
2022-09-03T21:15:16.189Z,100.00
2022-09-03T21:18:01.080Z,100.00
2022-09-03T21:20:40.742Z,100.00
2022-09-03T21:23:21.653Z,100.00
2022-09-03T21:26:01.131Z,100.00
2022-09-03T21:28:37.628Z,100.00
2022-09-03T21:31:18.249Z,100.00
2022-09-03T21:33:48.527Z,100.00
2022-09-03T21:36:28.667Z,100.00
2022-09-03T21:39:09.253Z,100.00
2022-09-03T21:41:45.030Z,100.00
2022-09-03T21:44:21.575Z,100.00
2022-09-03T21:46:57.872Z,100.00
2022-09-03T21:49:30.788Z,100.00
2022-09-03T21:52:07.154Z,100.00
2022-09-03T21:54:36.427Z,100.00
2022-09-03T21:57:22.788Z,100.00
2022-09-03T22:00:15.362Z,100.00
2022-09-03T22:02:43.297Z,100.00
2022-09-03T22:05:10.322Z,100.00
2022-09-03T22:08:06.698Z,100.00
2022-09-03T22:10:53.718Z,100.00
2022-09-03T22:13:29.955Z,100.00
2022-09-03T22:16:10.268Z,100.00
2022-09-03T22:18:37.253Z,100.00
2022-09-03T22:21:14.336Z,100.00
2022-09-03T22:24:03.116Z,100.00
2022-09-03T22:26:43.396Z,100.00
2022-09-03T22:29:27.358Z,100.00
2022-09-03T22:32:09.027Z,100.00
2022-09-03T22:35:10.575Z,100.00
2022-09-03T22:38:01.019Z,100.00
2022-09-03T22:40:44.894Z,100.00
2022-09-03T22:43:38.407Z,100.00
2022-09-03T22:46:15.074Z,100.00
2022-09-03T22:49:19.580Z,100.00
2022-09-03T22:52:18.894Z,100.00
2022-09-03T22:55:07.539Z,100.00
2022-09-03T22:57:51.774Z,100.00
2022-09-03T23:00:20.632Z,100.00
2022-09-03T23:02:59.491Z,100.00
2022-09-03T23:05:40.962Z,100.00
2022-09-03T23:08:17.779Z,100.00
2022-09-03T23:10:59.870Z,100.00
2022-09-03T23:13:38.318Z,100.00
2022-09-03T23:16:27.442Z,100.00
2022-09-03T23:18:57.827Z,100.00
2022-09-03T23:21:34.434Z,100.00
2022-09-03T23:24:11.860Z,100.00
2022-09-03T23:26:44.447Z,100.00
2022-09-03T23:29:20.360Z,100.00
2022-09-03T23:31:48.592Z,100.00
2022-09-03T23:34:15.706Z,100.00
2022-09-03T23:37:32.897Z,100.00
2022-09-03T23:40:27.700Z,100.00
2022-09-03T23:43:37.127Z,100.00
2022-09-03T23:46:15.826Z,100.00
2022-09-03T23:49:04.962Z,100.00
2022-09-03T23:51:53.969Z,100.00
2022-09-03T23:54:32.055Z,100.00
2022-09-03T23:57:09.326Z,100.00
2022-09-03T23:59:56.152Z,100.00
